createdAt,value
2022-10-08T00:02:03.928Z,21.14
2022-10-08T00:07:07.880Z,21.10
2022-10-08T00:12:11.537Z,21.07
2022-10-08T00:17:14.973Z,21.04
2022-10-08T00:22:18.912Z,20.99
2022-10-08T00:27:22.493Z,20.97
2022-10-08T00:32:25.872Z,20.95
2022-10-08T00:37:29.229Z,20.96
2022-10-08T00:42:32.667Z,20.97
2022-10-08T00:47:42.134Z,21.00
2022-10-08T00:52:55.977Z,20.98
2022-10-08T00:58:09.788Z,20.97
2022-10-08T01:03:13.646Z,20.97
2022-10-08T01:08:45.865Z,20.98
2022-10-08T01:13:53.221Z,20.96
2022-10-08T01:19:30.376Z,20.97
2022-10-08T01:24:49.755Z,20.94
2022-10-08T01:29:55.352Z,20.92
2022-10-08T01:35:03.392Z,20.88
2022-10-08T01:40:12.782Z,20.88
2022-10-08T01:45:26.488Z,20.87
2022-10-08T01:50:48.706Z,20.87
2022-10-08T01:55:54.409Z,20.86
2022-10-08T02:01:07.819Z,20.85
2022-10-08T02:06:11.270Z,20.84
2022-10-08T02:11:15.088Z,20.85
2022-10-08T02:16:28.838Z,20.84
2022-10-08T02:21:34.328Z,20.84
2022-10-08T02:26:44.888Z,20.85
2022-10-08T02:31:56.474Z,20.85
2022-10-08T02:37:14.921Z,20.84
2022-10-08T02:42:23.293Z,20.83
2022-10-08T02:47:30.956Z,20.82
2022-10-08T02:52:38.192Z,20.82
2022-10-08T02:57:45.374Z,20.80
2022-10-08T03:02:58.917Z,20.83
2022-10-08T03:08:02.579Z,20.84
2022-10-08T03:13:07.790Z,20.88
2022-10-08T03:18:12.456Z,20.91
2022-10-08T03:23:18.645Z,20.95
2022-10-08T03:28:22.412Z,20.97
2022-10-08T03:33:25.709Z,20.99
2022-10-08T03:38:29.679Z,21.00
2022-10-08T03:43:34.207Z,21.02
2022-10-08T03:48:38.254Z,21.02
2022-10-08T03:53:43.557Z,21.04
2022-10-08T03:58:52.335Z,21.05
2022-10-08T04:03:56.397Z,21.06
2022-10-08T04:09:00.007Z,21.06
2022-10-08T04:14:04.046Z,21.08
2022-10-08T04:19:07.406Z,21.11
2022-10-08T04:24:10.732Z,21.17
2022-10-08T04:29:14.703Z,21.23
2022-10-08T04:34:18.515Z,21.27
2022-10-08T04:39:22.460Z,21.34
2022-10-08T04:44:26.253Z,21.42
2022-10-08T04:49:29.483Z,21.49
2022-10-08T04:54:32.632Z,21.61
2022-10-08T04:59:35.795Z,21.78
2022-10-08T05:04:39.614Z,22.34
2022-10-08T05:09:43.282Z,23.07
2022-10-08T05:14:47.267Z,23.50
2022-10-08T05:19:50.782Z,23.76
2022-10-08T05:24:54.720Z,23.74
2022-10-08T05:29:58.226Z,23.65
2022-10-08T05:35:01.642Z,23.60
2022-10-08T05:40:06.899Z,23.60
2022-10-08T05:45:10.712Z,23.61
2022-10-08T05:50:14.790Z,23.68
2022-10-08T05:55:18.227Z,23.81
2022-10-08T06:00:22.764Z,23.88
2022-10-08T06:05:30.084Z,23.90
2022-10-08T06:10:33.371Z,23.90
2022-10-08T06:15:36.718Z,24.06
2022-10-08T06:20:40.085Z,24.24
2022-10-08T06:25:43.743Z,24.39
2022-10-08T06:30:47.401Z,24.46
2022-10-08T06:35:51.122Z,24.53
2022-10-08T06:40:58.566Z,24.62
2022-10-08T06:46:06.894Z,24.75
2022-10-08T06:51:13.010Z,24.83
2022-10-08T06:56:16.414Z,24.80
2022-10-08T07:01:30.298Z,24.75
2022-10-08T07:06:36.369Z,24.69
2022-10-08T07:11:39.656Z,24.52
2022-10-08T07:16:43.227Z,24.40
2022-10-08T07:21:46.611Z,24.56
2022-10-08T07:26:50.080Z,24.83
2022-10-08T07:31:53.926Z,24.94
2022-10-08T07:36:57.593Z,24.98
2022-10-08T07:42:01.293Z,25.03
2022-10-08T07:47:04.810Z,25.11
2022-10-08T07:52:08.764Z,25.01
2022-10-08T07:57:14.383Z,24.89
2022-10-08T08:02:18.041Z,24.90
2022-10-08T08:07:22.285Z,24.95
2022-10-08T08:12:25.916Z,25.01
2022-10-08T08:17:29.339Z,25.19
2022-10-08T08:22:40.481Z,25.37
2022-10-08T08:27:44.040Z,25.44
2022-10-08T08:32:48.129Z,25.42
2022-10-08T08:37:51.654Z,25.42
2022-10-08T08:42:56.838Z,25.44
2022-10-08T08:48:11.121Z,25.63
2022-10-08T08:53:14.950Z,25.65
2022-10-08T08:58:28.821Z,25.50
2022-10-08T09:03:38.086Z,25.55
2022-10-08T09:08:48.234Z,25.50
2022-10-08T09:14:27.811Z,25.64
2022-10-08T09:19:31.803Z,25.84
2022-10-08T09:24:35.414Z,26.05
2022-10-08T09:29:38.905Z,26.03
2022-10-08T09:34:42.707Z,26.06
2022-10-08T09:40:22.364Z,25.99
2022-10-08T09:45:40.283Z,25.93
2022-10-08T09:50:58.480Z,26.04
2022-10-08T09:56:05.421Z,26.14
2022-10-08T10:01:16.977Z,26.13
2022-10-08T10:06:34.605Z,25.98
2022-10-08T10:11:47.455Z,25.92
2022-10-08T10:17:13.134Z,25.83
2022-10-08T10:22:27.063Z,25.93
2022-10-08T10:27:33.169Z,26.03
2022-10-08T10:32:56.542Z,26.08
2022-10-08T10:38:09.960Z,26.06
2022-10-08T10:43:31.862Z,26.01
2022-10-08T10:48:36.162Z,25.96
2022-10-08T10:53:51.635Z,25.92
2022-10-08T10:59:25.986Z,25.98
2022-10-08T11:04:47.467Z,25.89
2022-10-08T11:09:54.976Z,25.81
2022-10-08T11:15:29.563Z,25.74
2022-10-08T11:20:58.403Z,25.71
2022-10-08T11:26:22.318Z,25.72
2022-10-08T11:31:48.148Z,25.71
2022-10-08T11:37:09.566Z,25.67
2022-10-08T11:42:18.742Z,25.72
2022-10-08T11:47:43.085Z,25.89
2022-10-08T11:52:46.585Z,26.01
2022-10-08T11:58:09.084Z,26.12
2022-10-08T12:03:34.090Z,26.02
2022-10-08T12:09:04.061Z,25.93
2022-10-08T12:14:13.637Z,26.04
2022-10-08T12:19:35.683Z,26.13
2022-10-08T12:24:39.102Z,26.21
2022-10-08T12:30:01.332Z,26.13
2022-10-08T12:35:20.571Z,25.93
2022-10-08T12:40:42.340Z,25.90
2022-10-08T12:45:59.650Z,25.91
2022-10-08T12:51:17.222Z,25.82
2022-10-08T12:56:27.388Z,25.87
2022-10-08T13:01:32.094Z,25.83
2022-10-08T13:06:35.669Z,25.62
2022-10-08T13:11:38.955Z,25.61
2022-10-08T13:16:47.286Z,25.67
2022-10-08T13:22:01.956Z,25.56
2022-10-08T13:27:06.444Z,25.45
2022-10-08T13:32:13.349Z,25.35
2022-10-08T13:37:40.795Z,25.19
2022-10-08T13:42:51.124Z,25.11
2022-10-08T13:47:55.357Z,25.01
2022-10-08T13:53:01.667Z,24.89
2022-10-08T13:58:07.091Z,24.80
2022-10-08T14:03:11.024Z,24.72
2022-10-08T14:08:27.008Z,24.56
2022-10-08T14:13:30.105Z,24.44
2022-10-08T14:18:33.291Z,24.37
2022-10-08T14:23:36.744Z,24.40
2022-10-08T14:28:42.995Z,24.37
2022-10-08T14:33:46.452Z,24.35
2022-10-08T14:38:49.832Z,24.30
2022-10-08T14:43:54.156Z,24.21
2022-10-08T14:48:58.105Z,24.07
2022-10-08T14:54:01.380Z,23.99
2022-10-08T14:59:07.066Z,23.89
2022-10-08T15:04:13.794Z,23.77
2022-10-08T15:09:17.162Z,23.65
2022-10-08T15:14:20.649Z,23.60
2022-10-08T15:19:24.256Z,23.52
2022-10-08T15:24:28.021Z,23.41
2022-10-08T15:29:31.519Z,23.33
2022-10-08T15:34:35.034Z,23.30
2022-10-08T15:39:39.103Z,23.25
2022-10-08T15:44:44.260Z,23.21
2022-10-08T15:49:47.520Z,23.14
2022-10-08T15:54:50.736Z,23.08
2022-10-08T15:59:54.336Z,23.04
2022-10-08T16:04:57.801Z,23.02
2022-10-08T16:10:01.450Z,22.97
2022-10-08T16:15:06.912Z,22.93
2022-10-08T16:20:10.614Z,22.90
2022-10-08T16:25:13.978Z,22.86
2022-10-08T16:30:17.288Z,22.81
2022-10-08T16:35:20.794Z,22.77
2022-10-08T16:40:24.743Z,22.73
2022-10-08T16:45:36.631Z,22.70
2022-10-08T16:50:41.596Z,22.67
2022-10-08T16:55:44.697Z,22.63
2022-10-08T17:00:48.103Z,22.60
2022-10-08T17:05:51.539Z,22.58
2022-10-08T17:10:55.057Z,22.57
2022-10-08T17:16:08.344Z,22.56
2022-10-08T17:21:12.874Z,22.56
2022-10-08T17:26:24.702Z,22.55
2022-10-08T17:31:29.043Z,22.54
2022-10-08T17:36:34.774Z,22.52
2022-10-08T17:41:39.744Z,22.51
2022-10-08T17:46:46.357Z,22.54
2022-10-08T17:51:49.950Z,22.58
2022-10-08T17:56:53.497Z,22.62
2022-10-08T18:01:57.131Z,22.64
2022-10-08T18:07:03.411Z,22.59
2022-10-08T18:12:07.438Z,22.55
2022-10-08T18:17:10.871Z,22.54
2022-10-08T18:22:16.087Z,22.48
2022-10-08T18:27:19.553Z,22.48
2022-10-08T18:32:23.036Z,22.46
2022-10-08T18:37:27.354Z,22.44
2022-10-08T18:42:30.891Z,22.43
2022-10-08T18:47:34.250Z,22.37
2022-10-08T18:52:37.568Z,22.32
2022-10-08T18:57:40.744Z,22.30
2022-10-08T19:02:44.163Z,22.25
2022-10-08T19:07:47.695Z,22.22
2022-10-08T19:12:51.703Z,22.21
2022-10-08T19:17:56.458Z,22.18
2022-10-08T19:23:00.309Z,22.15
2022-10-08T19:28:03.790Z,22.14
2022-10-08T19:33:07.387Z,22.14
2022-10-08T19:38:10.636Z,22.12
2022-10-08T19:43:13.863Z,22.12
2022-10-08T19:48:17.304Z,22.10
2022-10-08T19:53:20.698Z,22.11
2022-10-08T19:58:24.487Z,22.11
2022-10-08T20:03:28.362Z,22.13
2022-10-08T20:08:31.798Z,22.12
2022-10-08T20:13:35.631Z,22.11
2022-10-08T20:18:39.076Z,22.09
2022-10-08T20:23:42.378Z,22.11
2022-10-08T20:28:47.680Z,22.14
2022-10-08T20:34:06.815Z,22.13
2022-10-08T20:39:12.158Z,22.10
2022-10-08T20:44:19.280Z,22.08
2022-10-08T20:49:23.073Z,22.05
2022-10-08T20:54:26.406Z,22.01
2022-10-08T20:59:29.929Z,21.99
2022-10-08T21:04:33.175Z,21.96
2022-10-08T21:09:37.534Z,21.98
2022-10-08T21:14:42.004Z,21.95
2022-10-08T21:19:45.556Z,21.90
2022-10-08T21:24:48.971Z,21.85
2022-10-08T21:29:52.286Z,21.80
2022-10-08T21:34:55.881Z,21.74
2022-10-08T21:39:59.407Z,21.71
2022-10-08T21:45:04.122Z,21.69
2022-10-08T21:50:08.518Z,21.68
2022-10-08T21:55:12.390Z,21.65
2022-10-08T22:00:15.970Z,21.61
2022-10-08T22:05:19.351Z,21.57
2022-10-08T22:10:22.589Z,21.56
2022-10-08T22:15:29.132Z,21.58
2022-10-08T22:20:32.444Z,21.57
2022-10-08T22:25:35.734Z,21.58
2022-10-08T22:30:39.185Z,21.61
2022-10-08T22:35:44.023Z,21.63
2022-10-08T22:40:47.628Z,21.65
2022-10-08T22:45:51.104Z,21.69
2022-10-08T22:50:54.387Z,21.70
2022-10-08T22:55:58.897Z,21.72
2022-10-08T23:01:10.937Z,21.75
2022-10-08T23:06:21.056Z,21.74
2022-10-08T23:11:25.396Z,21.78
2022-10-08T23:16:30.950Z,21.82
2022-10-08T23:21:35.961Z,21.88
2022-10-08T23:26:39.559Z,21.89
2022-10-08T23:31:43.362Z,21.90
2022-10-08T23:36:47.410Z,21.91
2022-10-08T23:41:50.639Z,21.86
2022-10-08T23:46:54.062Z,21.80
2022-10-08T23:51:57.513Z,21.74
2022-10-08T23:57:01.085Z,21.67
